Řízení letového provozu České republiky
Letiste: LKKB Aktualizace: 18.08.2018 11:01:06  UTC
 METAR LKKB 18.08. 11:00 ...
METAR LKKB 181100Z 35008KT 320V040 CAVOK 24/14 Q1020 NOSIG RMK BLU BLU=
 TAF LKKB 18.08. 05:00 COR
TAF COR LKKB 180500Z 1806/1906 35005KT CAVOK      TEMPO 1810/1814 02008KT=